createdAt,value
2019-01-06T00:00:57.571Z,8.10
2019-01-06T00:03:00.163Z,8.05
2019-01-06T00:05:03.227Z,7.13
2019-01-06T00:07:09.762Z,7.95
2019-01-06T00:09:10.895Z,7.72
2019-01-06T00:11:11.878Z,7.17
2019-01-06T00:13:12.604Z,6.30
2019-01-06T00:15:13.504Z,6.73
2019-01-06T00:17:14.152Z,7.03
2019-01-06T00:19:14.962Z,8.17
2019-01-06T00:21:16.023Z,8.03
2019-01-06T00:23:16.812Z,8.20
2019-01-06T00:25:17.483Z,7.77
2019-01-06T00:27:18.549Z,7.73
2019-01-06T00:29:19.413Z,8.68
2019-01-06T00:45:34.461Z,8.35
2019-01-06T00:47:35.397Z,9.33
2019-01-06T00:49:36.476Z,9.30
2019-01-06T00:51:37.239Z,10.48
2019-01-06T00:53:37.881Z,9.97
2019-01-06T00:55:38.879Z,11.77
2019-01-06T00:57:39.991Z,10.05
2019-01-06T00:59:40.761Z,11.95
2019-01-06T01:01:49.803Z,12.33
2019-01-06T01:03:50.601Z,10.25
2019-01-06T01:05:52.528Z,11.57
2019-01-06T01:07:53.513Z,10.63
2019-01-06T01:09:54.426Z,10.60
2019-01-06T01:11:55.445Z,9.70
2019-01-06T01:13:56.508Z,8.73
2019-01-06T01:16:05.521Z,8.95
2019-01-06T01:18:06.493Z,8.15
2019-01-06T01:20:07.235Z,8.43
2019-01-06T01:22:26.696Z,7.97
2019-01-06T01:24:27.512Z,7.67
2019-01-06T01:26:28.344Z,5.27
2019-01-06T01:28:29.402Z,6.53
2019-01-06T01:30:30.585Z,6.15
2019-01-06T01:32:31.479Z,6.22
2019-01-06T01:34:33.360Z,4.73
2019-01-06T01:36:34.387Z,5.25
2019-01-06T01:38:35.439Z,5.55
2019-01-06T01:40:36.581Z,4.72
2019-01-06T01:42:37.501Z,4.67
2019-01-06T01:44:38.640Z,4.77
2019-01-06T01:46:39.572Z,4.97
2019-01-06T01:48:40.368Z,4.37
2019-01-06T01:50:41.221Z,4.23
2019-01-06T01:52:42.046Z,4.40
2019-01-06T01:54:42.712Z,4.60
2019-01-06T01:56:43.571Z,4.57
2019-01-06T01:58:44.564Z,3.83
2019-01-06T02:00:59.307Z,5.28
2019-01-06T02:02:58.806Z,4.67
2019-01-06T02:04:59.775Z,4.53
2019-01-06T02:07:02.725Z,5.17
2019-01-06T02:09:04.467Z,5.00
2019-01-06T02:11:09.296Z,4.70
2019-01-06T02:13:10.095Z,4.70
2019-01-06T02:15:11.149Z,4.50
2019-01-06T02:17:12.959Z,4.47
2019-01-06T02:19:13.915Z,4.50
2019-01-06T02:21:16.721Z,5.22
2019-01-06T02:23:17.475Z,4.90
2019-01-06T02:25:18.169Z,4.97
2019-01-06T02:27:20.206Z,5.47
2019-01-06T02:29:20.998Z,4.85
2019-01-06T02:31:21.750Z,5.17
2019-01-06T02:33:22.475Z,4.87
2019-01-06T02:35:23.101Z,5.17
2019-01-06T02:37:23.847Z,5.70
2019-01-06T02:39:25.012Z,6.20
2019-01-06T02:41:25.872Z,5.67
2019-01-06T02:43:26.879Z,4.90
2019-01-06T02:45:27.717Z,4.72
2019-01-06T02:47:28.569Z,4.70
2019-01-06T02:49:29.277Z,4.77
2019-01-06T02:51:30.350Z,4.33
2019-01-06T02:53:31.407Z,3.75
2019-01-06T02:55:33.168Z,3.75
2019-01-06T02:57:33.828Z,3.77
2019-01-06T02:59:34.635Z,2.90
2019-01-06T03:01:37.299Z,3.73
2019-01-06T03:03:37.979Z,3.00
2019-01-06T03:05:38.745Z,2.50
2019-01-06T03:07:39.404Z,2.03
2019-01-06T03:09:41.091Z,2.80
2019-01-06T03:11:41.842Z,2.80
2019-01-06T03:13:45.715Z,2.60
2019-01-06T03:15:47.357Z,2.33
2019-01-06T03:17:50.067Z,2.60
2019-01-06T03:19:51.085Z,2.67
2019-01-06T03:21:51.857Z,2.20
2019-01-06T03:23:56.692Z,3.07
2019-01-06T03:25:57.785Z,2.92
2019-01-06T03:27:58.954Z,3.08
2019-01-06T03:29:59.775Z,2.72
2019-01-06T03:32:00.848Z,3.13
2019-01-06T03:34:01.666Z,3.60
2019-01-06T03:36:02.640Z,3.63
2019-01-06T03:38:03.674Z,3.33
2019-01-06T03:40:05.568Z,4.22
2019-01-06T03:42:07.685Z,3.65
2019-01-06T03:44:08.532Z,4.62
2019-01-06T03:46:09.254Z,4.57
2019-01-06T03:48:09.951Z,3.93
2019-01-06T03:50:11.027Z,4.70
2019-01-06T03:52:11.805Z,4.83
2019-01-06T03:54:12.811Z,4.83
2019-01-06T03:56:13.472Z,5.17
2019-01-06T03:58:14.263Z,5.40
2019-01-06T04:00:15.280Z,5.83
2019-01-06T04:02:16.117Z,6.15
2019-01-06T04:04:17.166Z,6.50
2019-01-06T04:06:18.234Z,5.67
2019-01-06T04:08:18.864Z,5.62
2019-01-06T04:10:21.637Z,5.97
2019-01-06T04:12:22.332Z,6.40
2019-01-06T04:14:23.045Z,6.67
2019-01-06T04:16:29.864Z,6.07
2019-01-06T04:18:30.744Z,6.20
2019-01-06T04:20:32.654Z,6.47
2019-01-06T04:22:33.467Z,7.15
2019-01-06T04:24:34.398Z,6.80
2019-01-06T04:26:35.307Z,8.20
2019-01-06T04:28:36.376Z,6.83
2019-01-06T04:30:37.206Z,7.37
2019-01-06T04:32:37.930Z,7.00
2019-01-06T04:34:38.730Z,6.63
2019-01-06T04:36:39.474Z,7.17
2019-01-06T04:38:40.194Z,6.57
2019-01-06T04:40:40.969Z,7.57
2019-01-06T04:42:41.705Z,7.83
2019-01-06T04:44:42.400Z,7.23
2019-01-06T04:46:43.476Z,7.60
2019-01-06T04:48:48.273Z,7.90
2019-01-06T04:50:55.029Z,8.88
2019-01-06T04:52:56.062Z,8.13
2019-01-06T04:54:57.019Z,8.85
2019-01-06T04:56:58.515Z,8.35
2019-01-06T04:58:59.921Z,8.05
2019-01-06T05:01:01.865Z,8.95
2019-01-06T05:06:04.205Z,9.13
2019-01-06T05:08:05.158Z,9.30
2019-01-06T05:10:06.168Z,8.43
2019-01-06T05:12:07.269Z,9.50
2019-01-06T05:14:08.033Z,8.60
2019-01-06T05:16:09.130Z,8.80
2019-01-06T05:18:12.247Z,7.78
2019-01-06T05:20:12.977Z,8.15
2019-01-06T05:22:22.036Z,7.63
2019-01-06T05:24:22.786Z,7.10
2019-01-06T05:26:23.540Z,9.47
2019-01-06T05:28:24.513Z,8.47
2019-01-06T05:30:25.551Z,7.55
2019-01-06T05:32:29.392Z,8.50
2019-01-06T05:34:32.340Z,6.75
2019-01-06T05:36:33.175Z,8.25
2019-01-06T05:38:33.904Z,7.20
2019-01-06T05:40:34.648Z,8.80
2019-01-06T05:42:35.664Z,7.47
2019-01-06T05:44:36.663Z,8.30
2019-01-06T05:46:37.645Z,7.85
2019-01-06T05:48:38.708Z,8.33
2019-01-06T05:50:39.406Z,8.88
2019-01-06T05:52:40.183Z,10.13
2019-01-06T05:54:41.181Z,10.70
2019-01-06T05:56:42.307Z,9.78
2019-01-06T05:58:43.328Z,9.00
2019-01-06T06:00:44.519Z,8.80
2019-01-06T06:02:45.593Z,9.50
2019-01-06T06:04:47.315Z,9.03
2019-01-06T06:06:48.049Z,9.35
2019-01-06T06:08:48.871Z,8.70
2019-01-06T06:10:49.662Z,9.47
2019-01-06T06:12:50.499Z,9.50
2019-01-06T06:14:51.549Z,8.83
2019-01-06T06:16:54.597Z,7.03
2019-01-06T06:18:55.492Z,8.05
2019-01-06T06:20:58.521Z,8.07
2019-01-06T06:23:01.288Z,7.90
2019-01-06T06:25:08.204Z,8.83
2019-01-06T06:27:09.302Z,7.53
2019-01-06T06:29:10.332Z,8.23
2019-01-06T06:31:11.352Z,6.65
2019-01-06T06:33:12.090Z,7.17
2019-01-06T06:35:12.812Z,7.33
2019-01-06T06:37:13.906Z,8.30
2019-01-06T06:39:14.945Z,6.92
2019-01-06T06:41:15.964Z,7.87
2019-01-06T06:43:16.885Z,7.47
2019-01-06T06:45:17.786Z,7.07
2019-01-06T06:47:18.867Z,8.20
2019-01-06T06:49:21.834Z,7.25
2019-01-06T06:51:22.461Z,8.28
2019-01-06T06:53:23.579Z,8.50
2019-01-06T06:55:28.402Z,7.58
2019-01-06T06:58:03.522Z,6.90
2019-01-06T07:00:31.606Z,7.70
2019-01-06T07:02:37.141Z,7.03
2019-01-06T07:04:38.201Z,6.78
2019-01-06T07:06:39.037Z,7.65
2019-01-06T07:08:40.191Z,7.37
2019-01-06T07:10:40.933Z,8.18
2019-01-06T07:12:41.680Z,7.37
2019-01-06T07:14:42.840Z,8.63
2019-01-06T07:17:20.716Z,7.40
2019-01-06T07:19:21.398Z,8.28
2019-01-06T07:21:22.203Z,8.10
2019-01-06T07:23:22.895Z,8.73
2019-01-06T07:25:23.758Z,8.33
2019-01-06T07:27:26.639Z,8.33
2019-01-06T07:29:27.435Z,9.90
2019-01-06T07:31:36.075Z,8.10
2019-01-06T07:33:38.034Z,8.55
2019-01-06T07:35:38.763Z,8.13
2019-01-06T07:42:53.489Z,6.83
2019-01-06T07:44:54.670Z,5.92
2019-01-06T07:46:55.461Z,6.78
2019-01-06T07:48:57.706Z,6.90
2019-01-06T07:50:58.583Z,5.47
2019-01-06T07:52:59.368Z,4.60
2019-01-06T07:55:00.452Z,4.67
2019-01-06T07:57:01.186Z,7.00
2019-01-06T07:59:02.032Z,5.33
2019-01-06T08:01:09.037Z,4.37
2019-01-06T08:03:09.859Z,6.80
2019-01-06T08:05:10.850Z,5.43
2019-01-06T08:07:12.664Z,3.70
2019-01-06T08:09:13.485Z,4.12
2019-01-06T08:11:15.457Z,4.67
2019-01-06T08:13:17.715Z,4.33
2019-01-06T08:15:18.735Z,5.78
2019-01-06T08:17:19.818Z,4.57
2019-01-06T08:19:20.558Z,5.08
2019-01-06T08:21:21.416Z,4.40
2019-01-06T08:23:22.136Z,4.93
2019-01-06T08:25:27.359Z,4.70
2019-01-06T08:27:28.629Z,4.70
2019-01-06T08:29:29.550Z,3.70
2019-01-06T08:31:30.450Z,3.70
2019-01-06T08:33:32.760Z,3.85
2019-01-06T08:35:41.820Z,5.65
2019-01-06T08:37:42.789Z,4.25
2019-01-06T08:39:43.669Z,4.95
2019-01-06T08:41:47.909Z,3.97
2019-01-06T08:43:49.002Z,6.15
2019-01-06T08:45:50.215Z,4.87
2019-01-06T08:47:51.215Z,4.37
2019-01-06T08:49:51.990Z,4.20
2019-01-06T08:51:52.790Z,8.23
2019-01-06T08:53:53.709Z,5.70
2019-01-06T08:55:54.372Z,8.67
2019-01-06T08:57:57.614Z,5.20
2019-01-06T08:59:59.597Z,5.40
2019-01-06T09:02:04.488Z,4.28
2019-01-06T09:04:05.365Z,4.53
2019-01-06T09:06:06.316Z,4.97
2019-01-06T09:08:07.162Z,4.40
2019-01-06T09:10:12.090Z,5.07
2019-01-06T09:12:13.178Z,3.92
2019-01-06T09:14:13.930Z,5.10
2019-01-06T09:16:25.039Z,3.97
2019-01-06T09:18:31.215Z,3.80
2019-01-06T09:20:31.972Z,3.50
2019-01-06T09:22:33.202Z,3.50
2019-01-06T09:24:36.144Z,3.62
2019-01-06T09:26:39.641Z,3.20
2019-01-06T09:28:41.668Z,4.92
2019-01-06T09:30:42.794Z,3.47
2019-01-06T09:32:45.059Z,3.30
2019-01-06T09:34:46.027Z,3.05
2019-01-06T09:36:47.089Z,3.65
2019-01-06T09:38:49.223Z,2.45
2019-01-06T09:40:50.576Z,2.35
2019-01-06T09:42:53.895Z,1.98
2019-01-06T09:44:54.815Z,1.40
2019-01-06T09:46:57.215Z,1.57
2019-01-06T09:48:58.377Z,1.45
2019-01-06T09:50:59.130Z,1.90
2019-01-06T09:53:00.266Z,1.53
2019-01-06T09:55:01.649Z,1.00
2019-01-06T09:57:03.558Z,1.40
2019-01-06T09:59:04.285Z,1.45
2019-01-06T10:01:05.091Z,1.30
2019-01-06T10:03:05.980Z,1.10
2019-01-06T10:05:12.599Z,1.30
2019-01-06T10:07:13.293Z,0.98
2019-01-06T10:09:14.053Z,1.60
2019-01-06T10:11:14.690Z,1.20
2019-01-06T10:13:15.543Z,1.13
2019-01-06T10:15:16.535Z,2.30
2019-01-06T10:17:17.335Z,2.00
2019-01-06T10:19:20.325Z,1.20
2019-01-06T10:21:20.856Z,1.10
2019-01-06T10:23:21.839Z,1.33
2019-01-06T10:25:22.627Z,1.10
2019-01-06T10:27:23.457Z,1.60
2019-01-06T10:29:24.303Z,1.70
2019-01-06T10:31:25.207Z,1.77
2019-01-06T10:33:25.999Z,1.93
2019-01-06T10:35:26.758Z,1.97
2019-01-06T10:37:27.609Z,1.60
2019-01-06T10:39:28.748Z,2.67
2019-01-06T10:41:29.480Z,1.95
2019-01-06T10:43:30.337Z,2.70
2019-01-06T10:45:31.098Z,1.87
2019-01-06T10:47:31.824Z,2.03
2019-01-06T10:49:32.613Z,2.33
2019-01-06T10:51:33.290Z,2.23
2019-01-06T10:53:34.023Z,1.80
2019-01-06T10:55:34.812Z,2.83
2019-01-06T10:57:35.570Z,2.50
2019-01-06T10:59:37.210Z,2.80
2019-01-06T11:01:37.987Z,2.47
2019-01-06T11:03:38.689Z,2.43
2019-01-06T11:05:39.419Z,2.27
2019-01-06T11:07:40.372Z,3.20
2019-01-06T11:09:42.472Z,2.30
2019-01-06T11:11:43.421Z,3.55
2019-01-06T11:13:46.371Z,3.00
2019-01-06T11:15:47.121Z,2.60
2019-01-06T11:17:48.031Z,3.10
2019-01-06T11:19:48.784Z,2.13
2019-01-06T11:21:51.583Z,2.20
2019-01-06T11:23:53.363Z,1.80
2019-01-06T11:25:55.535Z,2.10
2019-01-06T11:27:58.385Z,1.85
2019-01-06T11:29:59.406Z,3.35
2019-01-06T11:32:03.444Z,3.72
2019-01-06T11:34:04.176Z,2.98
2019-01-06T11:36:06.077Z,2.00
2019-01-06T11:38:08.546Z,1.75
2019-01-06T11:40:11.049Z,2.30
2019-01-06T11:42:13.018Z,2.10
2019-01-06T11:44:14.171Z,2.62
2019-01-06T11:46:14.999Z,2.37
2019-01-06T11:48:18.007Z,2.60
2019-01-06T11:50:21.140Z,3.30
2019-01-06T11:52:22.968Z,2.50
2019-01-06T11:54:23.642Z,1.98
2019-01-06T11:56:34.322Z,2.35
2019-01-06T11:58:35.100Z,2.20
2019-01-06T12:00:35.742Z,2.03
2019-01-06T12:02:39.265Z,3.03
2019-01-06T12:04:39.563Z,2.05
2019-01-06T12:06:41.914Z,2.42
2019-01-06T12:08:43.034Z,2.20
2019-01-06T12:10:47.736Z,2.62
2019-01-06T12:12:49.856Z,2.02
2019-01-06T12:14:52.514Z,2.22
2019-01-06T12:16:53.579Z,2.87
2019-01-06T12:18:54.696Z,2.35
2019-01-06T12:20:56.957Z,1.92
2019-01-06T12:22:57.886Z,1.92
2019-01-06T12:25:06.862Z,1.93
2019-01-06T12:27:12.528Z,3.35
2019-01-06T12:29:18.375Z,1.75
2019-01-06T12:31:22.549Z,1.80
2019-01-06T12:33:32.673Z,2.05
2019-01-06T12:35:36.977Z,1.50
2019-01-06T12:37:39.935Z,1.50
2019-01-06T12:39:46.732Z,1.60
2019-01-06T12:41:44.589Z,1.85
2019-01-06T12:44:07.071Z,1.40
2019-01-06T12:46:11.311Z,1.70
2019-01-06T12:48:14.375Z,1.25
2019-01-06T12:50:26.145Z,1.30
2019-01-06T12:52:35.265Z,1.30
2019-01-06T12:57:35.754Z,1.37
2019-01-06T12:59:36.935Z,1.40
2019-01-06T13:01:38.092Z,1.07
2019-01-06T13:03:41.623Z,1.67
2019-01-06T13:05:42.999Z,1.20
2019-01-06T13:07:44.213Z,1.20
2019-01-06T13:09:45.126Z,1.15
2019-01-06T13:11:46.326Z,1.30
2019-01-06T13:13:47.428Z,1.60
2019-01-06T13:15:48.675Z,1.80
2019-01-06T13:17:50.938Z,1.80
2019-01-06T13:19:55.936Z,1.60
2019-01-06T13:21:59.324Z,2.10
2019-01-06T13:24:03.435Z,1.55
2019-01-06T13:26:04.452Z,1.80
2019-01-06T13:28:05.284Z,1.77
2019-01-06T13:30:41.526Z,1.63
2019-01-06T13:32:30.122Z,2.65
2019-01-06T13:34:34.780Z,1.90
2019-01-06T13:36:35.776Z,1.70
2019-01-06T13:38:36.723Z,1.47
2019-01-06T13:40:46.794Z,1.65
2019-01-06T13:42:48.840Z,2.10
2019-01-06T13:44:52.935Z,2.62
2019-01-06T13:46:55.470Z,2.98
2019-01-06T13:48:57.987Z,2.83
2019-01-06T13:51:00.157Z,2.00
2019-01-06T13:53:01.218Z,2.80
2019-01-06T13:55:02.249Z,2.17
2019-01-06T13:57:03.525Z,3.77
2019-01-06T13:59:04.600Z,2.90
2019-01-06T14:01:05.370Z,2.10
2019-01-06T14:03:06.627Z,2.33
2019-01-06T14:05:07.393Z,2.25
2019-01-06T14:07:08.571Z,2.30
2019-01-06T14:09:11.042Z,2.37
2019-01-06T14:11:12.664Z,2.27
2019-01-06T14:13:17.585Z,2.10
2019-01-06T14:15:23.315Z,2.08
2019-01-06T14:17:24.174Z,2.45
2019-01-06T14:19:24.920Z,2.53
2019-01-06T14:23:46.527Z,2.33
2019-01-06T14:25:49.355Z,2.73
2019-01-06T14:27:52.265Z,2.62
2019-01-06T14:29:53.589Z,2.90
2019-01-06T14:31:54.657Z,3.30
2019-01-06T14:33:55.607Z,2.50
2019-01-06T14:35:56.983Z,3.35
2019-01-06T14:37:58.002Z,2.87
2019-01-06T14:39:59.052Z,2.80
2019-01-06T14:41:59.958Z,2.80
2019-01-06T14:44:00.843Z,3.70
2019-01-06T14:46:04.610Z,3.40
2019-01-06T14:48:09.758Z,4.08
2019-01-06T14:50:09.191Z,3.90
2019-01-06T14:52:10.373Z,3.77
2019-01-06T14:54:12.493Z,4.03
2019-01-06T14:56:13.964Z,3.80
2019-01-06T14:58:14.930Z,4.55
2019-01-06T15:00:15.934Z,4.17
2019-01-06T15:02:17.037Z,4.53
2019-01-06T15:04:20.855Z,4.92
2019-01-06T15:06:21.840Z,5.37
2019-01-06T15:08:23.178Z,5.00
2019-01-06T15:10:24.032Z,4.95
2019-01-06T15:12:25.908Z,5.63
2019-01-06T15:14:27.829Z,5.65
2019-01-06T15:16:28.702Z,5.30
2019-01-06T15:18:29.706Z,5.63
2019-01-06T15:20:30.746Z,5.40
2019-01-06T15:22:31.727Z,4.97
2019-01-06T15:24:32.729Z,5.90
2019-01-06T15:26:33.685Z,5.83
2019-01-06T15:28:39.182Z,5.83
2019-01-06T15:30:37.601Z,5.62
2019-01-06T15:32:39.940Z,5.78
2019-01-06T15:34:41.034Z,5.75
2019-01-06T15:36:42.464Z,5.85
2019-01-06T15:38:43.582Z,5.90
2019-01-06T15:40:44.436Z,6.60
2019-01-06T15:42:45.454Z,6.50
2019-01-06T15:44:46.427Z,6.05
2019-01-06T15:46:48.694Z,6.25
2019-01-06T15:48:54.306Z,6.83
2019-01-06T15:51:01.316Z,6.92
2019-01-06T15:53:01.312Z,6.95
2019-01-06T15:55:03.372Z,6.87
2019-01-06T15:57:04.508Z,6.85
2019-01-06T15:59:05.627Z,6.67
2019-01-06T16:01:08.799Z,8.13
2019-01-06T16:03:10.001Z,8.03
2019-01-06T16:05:20.049Z,7.95
2019-01-06T16:07:21.103Z,9.98
2019-01-06T16:09:22.882Z,9.95
2019-01-06T16:11:23.663Z,9.58
2019-01-06T16:13:24.657Z,9.70
2019-01-06T16:15:25.651Z,13.33
2019-01-06T16:17:41.204Z,11.23
2019-01-06T16:19:42.176Z,12.05
2019-01-06T16:21:43.184Z,11.20
2019-01-06T16:23:48.394Z,10.68
2019-01-06T16:25:48.411Z,9.50
2019-01-06T16:27:50.907Z,14.07
2019-01-06T16:29:55.294Z,11.90
2019-01-06T16:32:04.407Z,10.43
2019-01-06T16:34:06.997Z,12.03
2019-01-06T16:36:08.293Z,10.50
2019-01-06T16:38:10.659Z,11.25
2019-01-06T16:40:11.615Z,9.18
2019-01-06T16:42:16.810Z,11.38
2019-01-06T16:44:23.358Z,10.55
2019-01-06T16:46:24.082Z,12.50
2019-01-06T16:48:43.309Z,12.50
2019-01-06T16:51:14.762Z,10.00
2019-01-06T16:59:09.095Z,13.15
2019-01-06T17:01:17.484Z,13.03
2019-01-06T17:03:18.265Z,11.55
2019-01-06T17:05:19.334Z,13.00
2019-01-06T17:07:20.847Z,11.45
2019-01-06T17:09:28.606Z,12.82
2019-01-06T17:11:29.726Z,13.03
2019-01-06T17:13:31.464Z,14.13
2019-01-06T17:15:35.037Z,14.30
2019-01-06T17:17:37.748Z,19.17
2019-01-06T17:19:40.216Z,14.75
2019-01-06T17:21:49.258Z,14.78
2019-01-06T17:23:49.890Z,15.60
2019-01-06T17:25:50.787Z,15.23
2019-01-06T17:27:56.806Z,13.70
2019-01-06T17:29:57.879Z,18.57
2019-01-06T17:31:58.709Z,14.30
2019-01-06T17:33:59.832Z,15.13
2019-01-06T17:36:00.881Z,13.90
2019-01-06T17:38:02.061Z,13.60
2019-01-06T17:40:10.022Z,13.30
2019-01-06T17:42:11.464Z,13.78
2019-01-06T17:44:14.757Z,15.85
2019-01-06T17:46:15.926Z,16.00
2019-01-06T17:48:18.760Z,14.58
2019-01-06T17:50:26.235Z,14.50
2019-01-06T17:54:49.221Z,13.47
2019-01-06T17:56:52.214Z,15.08
2019-01-06T17:58:54.107Z,15.70
2019-01-06T18:00:55.293Z,14.38
2019-01-06T18:02:58.398Z,14.63
2019-01-06T18:05:08.859Z,15.10
2019-01-06T18:07:15.503Z,19.87
2019-01-06T18:09:22.535Z,17.23
2019-01-06T18:11:28.840Z,13.68
2019-01-06T18:13:30.578Z,14.73
2019-01-06T18:15:31.708Z,14.53
2019-01-06T18:17:32.473Z,15.50
2019-01-06T18:19:33.461Z,15.63
2019-01-06T18:21:34.630Z,17.67
2019-01-06T18:23:35.350Z,16.15
2019-01-06T18:25:36.321Z,15.60
2019-01-06T18:27:39.355Z,18.90
2019-01-06T18:29:40.428Z,16.32
2019-01-06T18:31:42.391Z,16.35
2019-01-06T18:33:44.553Z,16.02
2019-01-06T18:35:46.824Z,15.20
2019-01-06T18:37:47.884Z,14.50
2019-01-06T18:41:24.837Z,14.65
2019-01-06T18:41:52.036Z,16.17
2019-01-06T18:43:54.357Z,16.30
2019-01-06T18:45:55.636Z,15.40
2019-01-06T18:47:59.902Z,16.20
2019-01-06T18:50:00.984Z,17.57
2019-01-06T18:52:02.068Z,16.40
2019-01-06T18:54:05.673Z,18.02
2019-01-06T18:56:09.632Z,16.70
2019-01-06T18:58:13.171Z,17.52
2019-01-06T19:00:23.005Z,17.85
2019-01-06T19:02:25.100Z,19.02
2019-01-06T19:04:26.191Z,16.87
2019-01-06T19:06:28.074Z,17.07
2019-01-06T19:08:29.255Z,17.77
2019-01-06T19:10:30.273Z,17.77
2019-01-06T19:12:32.812Z,18.62
2019-01-06T19:14:34.605Z,16.45
2019-01-06T19:16:35.341Z,19.05
2019-01-06T19:18:36.776Z,18.17
2019-01-06T19:20:42.026Z,18.27
2019-01-06T19:22:44.297Z,17.02
2019-01-06T19:24:45.168Z,16.85
2019-01-06T19:26:47.636Z,17.53
2019-01-06T19:28:48.977Z,17.37
2019-01-06T19:30:50.319Z,16.93
2019-01-06T19:32:51.437Z,16.52
2019-01-06T19:34:53.125Z,17.87
2019-01-06T19:36:54.178Z,15.38
2019-01-06T19:38:54.991Z,15.43
2019-01-06T19:41:00.489Z,16.30
2019-01-06T19:42:59.232Z,17.30
2019-01-06T19:45:12.571Z,17.02
2019-01-06T19:47:16.261Z,17.90
2019-01-06T19:49:18.604Z,19.48
2019-01-06T19:51:21.043Z,31.52
2019-01-06T19:53:22.253Z,17.23
2019-01-06T19:55:24.665Z,15.20
2019-01-06T19:57:27.184Z,16.82
2019-01-06T19:59:28.136Z,22.15
2019-01-06T20:01:35.227Z,22.23
2019-01-06T20:03:36.430Z,14.95
2019-01-06T20:05:41.721Z,14.85
2019-01-06T20:07:44.985Z,13.68
2019-01-06T20:09:47.888Z,15.90
2019-01-06T20:11:49.068Z,14.05
2019-01-06T20:13:51.299Z,15.43
2019-01-06T20:15:52.385Z,14.65
2019-01-06T20:17:58.400Z,15.32
2019-01-06T20:20:06.124Z,15.25
2019-01-06T20:22:04.703Z,14.83
2019-01-06T20:24:06.990Z,16.45
2019-01-06T20:26:18.287Z,15.95
2019-01-06T20:28:26.801Z,16.35
2019-01-06T20:30:28.777Z,14.90
2019-01-06T20:32:38.178Z,16.35
2019-01-06T20:34:39.518Z,16.55
2019-01-06T20:36:40.466Z,15.80
2019-01-06T20:44:26.788Z,16.93
2019-01-06T20:46:28.087Z,17.30
2019-01-06T20:48:28.902Z,18.37
2019-01-06T20:50:29.563Z,16.87
2019-01-06T20:52:30.641Z,16.07
2019-01-06T20:54:31.451Z,16.50
2019-01-06T20:56:32.552Z,17.23
2019-01-06T20:58:33.277Z,17.52
2019-01-06T21:00:37.549Z,17.57
2019-01-06T21:02:44.444Z,19.32
2019-01-06T21:04:45.433Z,17.70
2019-01-06T21:06:46.480Z,18.70
2019-01-06T21:08:48.803Z,17.45
2019-01-06T21:10:49.977Z,17.60
2019-01-06T21:12:52.262Z,20.40
2019-01-06T21:14:55.223Z,22.02
2019-01-06T21:16:56.313Z,19.15
2019-01-06T21:19:05.121Z,19.35
2019-01-06T21:21:06.197Z,19.35
2019-01-06T21:23:07.254Z,18.95
2019-01-06T21:25:08.244Z,21.15
2019-01-06T21:27:09.223Z,20.20
2019-01-06T21:29:10.453Z,18.97
2019-01-06T21:31:11.317Z,20.68
2019-01-06T21:33:15.054Z,20.37
2019-01-06T21:35:16.125Z,19.85
2019-01-06T21:37:17.198Z,21.10
2019-01-06T21:39:18.137Z,21.62
2019-01-06T21:41:21.539Z,23.00
2019-01-06T21:44:09.449Z,23.55
2019-01-06T21:45:25.781Z,21.77
2019-01-06T21:47:28.711Z,21.25
2019-01-06T21:49:29.844Z,22.13
2019-01-06T21:51:34.359Z,24.27
2019-01-06T21:53:35.519Z,21.42
2019-01-06T21:55:38.072Z,24.60
2019-01-06T21:57:41.109Z,24.05
2019-01-06T21:59:43.316Z,23.27
2019-01-06T22:01:44.268Z,22.73
2019-01-06T22:03:45.152Z,23.77
2019-01-06T22:05:46.325Z,22.53
2019-01-06T22:07:47.145Z,26.23
2019-01-06T22:09:47.919Z,21.23
2019-01-06T22:11:50.627Z,22.70
2019-01-06T22:13:51.673Z,23.47
2019-01-06T22:15:52.601Z,25.20
2019-01-06T22:17:53.697Z,23.73
2019-01-06T22:19:54.514Z,24.23
2019-01-06T22:21:55.488Z,23.70
2019-01-06T22:23:56.358Z,21.30
2019-01-06T22:25:57.157Z,21.67
2019-01-06T22:27:58.306Z,21.47
2019-01-06T22:29:59.057Z,22.80
2019-01-06T22:31:59.826Z,24.50
2019-01-06T22:34:02.258Z,22.03
2019-01-06T22:36:10.143Z,20.85
2019-01-06T22:38:15.257Z,21.80
2019-01-06T22:40:16.153Z,22.40
2019-01-06T22:42:30.733Z,23.20
2019-01-06T22:44:24.381Z,20.77
2019-01-06T22:46:25.135Z,19.80
2019-01-06T22:51:25.383Z,21.55
2019-01-06T22:53:27.524Z,20.77
2019-01-06T22:55:30.485Z,20.10
2019-01-06T22:57:40.125Z,20.85
2019-01-06T22:59:45.169Z,20.43
2019-01-06T23:01:47.377Z,21.07
2019-01-06T23:03:50.407Z,22.27
2019-01-06T23:05:57.987Z,22.05
2019-01-06T23:08:00.736Z,22.40
2019-01-06T23:10:04.390Z,20.92
2019-01-06T23:12:05.698Z,20.92
2019-01-06T23:14:10.628Z,23.20
2019-01-06T23:16:13.388Z,24.12
2019-01-06T23:18:14.293Z,23.98
2019-01-06T23:20:15.192Z,22.37
2019-01-06T23:22:16.087Z,22.73
2019-01-06T23:24:16.950Z,25.20
2019-01-06T23:26:20.748Z,24.40
2019-01-06T23:28:20.630Z,24.37
2019-01-06T23:30:21.493Z,23.53
2019-01-06T23:32:23.774Z,24.20
2019-01-06T23:34:24.954Z,25.17
2019-01-06T23:36:25.874Z,23.67
2019-01-06T23:38:26.536Z,22.57
2019-01-06T23:40:27.295Z,22.77
2019-01-06T23:42:28.248Z,20.90
2019-01-06T23:44:29.131Z,21.73
2019-01-06T23:46:29.782Z,21.90
2019-01-06T23:48:30.795Z,22.73
2019-01-06T23:50:31.666Z,23.15
2019-01-06T23:52:32.508Z,22.33
2019-01-06T23:54:33.595Z,21.23
2019-01-06T23:56:37.477Z,20.23
2019-01-06T23:58:38.337Z,20.70
